createdAt,value
2024-04-23T00:00:08.229Z,21.26
2024-04-23T00:00:39.797Z,21.26
2024-04-23T00:01:11.441Z,21.27
2024-04-23T00:01:43.045Z,21.28
2024-04-23T00:02:14.706Z,21.29
2024-04-23T00:02:46.271Z,21.28
2024-04-23T00:03:17.847Z,21.27
2024-04-23T00:03:49.427Z,21.26
2024-04-23T00:04:21.071Z,21.27
2024-04-23T00:04:52.705Z,21.27
2024-04-23T00:05:24.406Z,21.27
2024-04-23T00:05:55.958Z,21.25
2024-04-23T00:06:27.499Z,21.27
2024-04-23T00:06:59.062Z,21.25
2024-04-23T00:07:30.702Z,21.27
2024-04-23T00:08:02.333Z,21.28
2024-04-23T00:08:33.911Z,21.27
2024-04-23T00:09:05.518Z,21.24
2024-04-23T00:09:37.102Z,21.22
2024-04-23T00:10:08.671Z,21.21
2024-04-23T00:10:40.267Z,21.24
2024-04-23T00:11:12.115Z,21.25
2024-04-23T00:11:43.860Z,21.23
2024-04-23T00:12:15.425Z,21.23
2024-04-23T00:12:47.025Z,21.24
2024-04-23T00:13:18.597Z,21.25
2024-04-23T00:13:50.190Z,21.24
2024-04-23T00:14:21.814Z,21.21
2024-04-23T00:14:53.370Z,21.24
2024-04-23T00:15:24.924Z,21.25
2024-04-23T00:15:56.496Z,21.25
2024-04-23T00:16:28.063Z,21.24
2024-04-23T00:16:59.702Z,21.26
2024-04-23T00:17:31.347Z,21.27
2024-04-23T00:18:03.045Z,21.26
2024-04-23T00:18:34.815Z,21.26
2024-04-23T00:19:06.520Z,21.26
2024-04-23T00:19:38.090Z,21.26
2024-04-23T00:20:09.758Z,21.23
2024-04-23T00:20:41.342Z,21.23
2024-04-23T00:21:12.935Z,21.25
2024-04-23T00:21:44.544Z,21.25
2024-04-23T00:22:16.092Z,21.23
2024-04-23T00:22:47.684Z,21.24
2024-04-23T00:23:19.296Z,21.24
2024-04-23T00:23:50.890Z,21.24
2024-04-23T00:24:22.450Z,21.26
2024-04-23T00:24:54.092Z,21.26
2024-04-23T00:25:25.703Z,21.25
2024-04-23T00:25:57.397Z,21.25
2024-04-23T00:26:29.027Z,21.23
2024-04-23T00:27:00.730Z,21.23
2024-04-23T00:27:32.481Z,21.25
2024-04-23T00:28:04.196Z,21.25
2024-04-23T00:28:35.884Z,21.24
2024-04-23T00:29:07.537Z,21.25
2024-04-23T00:29:39.159Z,21.24
2024-04-23T00:30:10.802Z,21.23
2024-04-23T00:30:42.395Z,21.22
2024-04-23T00:31:13.943Z,21.22
2024-04-23T00:31:45.635Z,21.24
2024-04-23T00:32:17.278Z,21.24
2024-04-23T00:32:49.063Z,21.24
2024-04-23T00:33:20.686Z,21.23
2024-04-23T00:33:52.293Z,21.24
2024-04-23T00:34:23.907Z,21.24
2024-04-23T00:34:55.548Z,21.24
2024-04-23T00:35:27.190Z,21.24
2024-04-23T00:35:58.783Z,21.24
2024-04-23T00:36:30.362Z,21.24
2024-04-23T00:37:01.934Z,21.24
2024-04-23T00:37:33.647Z,21.23
2024-04-23T00:38:05.366Z,21.25
2024-04-23T00:38:36.947Z,21.25
2024-04-23T00:39:08.624Z,21.26
2024-04-23T00:39:40.189Z,21.25
2024-04-23T00:40:11.731Z,21.25
2024-04-23T00:40:43.301Z,21.25
2024-04-23T00:41:14.892Z,21.26
2024-04-23T00:41:46.531Z,21.26
2024-04-23T00:42:18.139Z,21.26
2024-04-23T00:42:49.754Z,21.26
2024-04-23T00:43:21.346Z,21.27
2024-04-23T00:43:52.938Z,21.25
2024-04-23T00:44:24.629Z,21.24
2024-04-23T00:44:56.206Z,21.23
2024-04-23T00:45:27.758Z,21.25
2024-04-23T00:45:59.338Z,21.26
2024-04-23T00:46:31.024Z,21.25
2024-04-23T00:47:02.670Z,21.25
2024-04-23T00:47:34.297Z,21.23
2024-04-23T00:48:05.987Z,21.25
2024-04-23T00:48:37.678Z,21.25
2024-04-23T00:49:09.269Z,21.23
2024-04-23T00:49:40.800Z,21.23
2024-04-23T00:50:12.335Z,21.23
2024-04-23T00:50:43.972Z,21.23
2024-04-23T00:51:15.557Z,21.24
2024-04-23T00:51:47.189Z,21.23
2024-04-23T00:52:18.775Z,21.25
2024-04-23T00:52:50.371Z,21.25
2024-04-23T00:53:21.975Z,21.25
2024-04-23T00:53:53.559Z,21.26
2024-04-23T00:54:25.129Z,21.26
2024-04-23T00:54:56.672Z,21.27
2024-04-23T00:55:28.275Z,21.26
2024-04-23T00:55:59.990Z,21.24
2024-04-23T00:56:31.667Z,21.24
2024-04-23T00:57:03.318Z,21.24
2024-04-23T00:57:34.857Z,21.25
2024-04-23T00:58:06.438Z,21.25
2024-04-23T00:58:38.470Z,21.26
2024-04-23T00:59:10.944Z,21.26
2024-04-23T00:59:42.552Z,21.26
2024-04-23T01:00:14.139Z,21.25
2024-04-23T01:00:45.734Z,21.25
2024-04-23T01:01:17.393Z,21.27
2024-04-23T01:01:49.027Z,21.26
2024-04-23T01:02:20.736Z,21.25
2024-04-23T01:02:52.304Z,21.24
2024-04-23T01:03:23.891Z,21.23
2024-04-23T01:03:55.622Z,21.24
2024-04-23T01:04:27.179Z,21.23
2024-04-23T01:04:58.935Z,21.24
2024-04-23T01:05:30.613Z,21.24
2024-04-23T01:06:02.158Z,21.24
2024-04-23T01:06:33.729Z,21.24
2024-04-23T01:07:05.256Z,21.26
2024-04-23T01:07:36.872Z,21.26
2024-04-23T01:08:08.428Z,21.26
2024-04-23T01:08:39.964Z,21.25
2024-04-23T01:09:11.482Z,21.26
2024-04-23T01:09:43.055Z,21.26
2024-04-23T01:10:14.646Z,21.26
2024-04-23T01:10:46.224Z,21.26
2024-04-23T01:11:17.832Z,21.27
2024-04-23T01:11:49.628Z,21.27
2024-04-23T01:12:21.516Z,21.25
2024-04-23T01:12:53.029Z,21.25
2024-04-23T01:13:24.603Z,21.25
2024-04-23T01:13:56.247Z,21.27
2024-04-23T01:14:27.861Z,21.25
2024-04-23T01:14:59.495Z,21.25
2024-04-23T01:15:31.076Z,21.24
2024-04-23T01:16:02.627Z,21.25
2024-04-23T01:16:34.226Z,21.23
2024-04-23T01:17:05.947Z,21.25
2024-04-23T01:17:37.607Z,21.25
2024-04-23T01:18:09.306Z,21.25
2024-04-23T01:18:40.950Z,21.25
2024-04-23T01:19:12.540Z,21.24
2024-04-23T01:19:44.160Z,21.25
2024-04-23T01:20:15.786Z,21.25
2024-04-23T01:20:47.324Z,21.25
2024-04-23T01:21:18.861Z,21.25
2024-04-23T01:21:50.420Z,21.25
2024-04-23T01:22:21.968Z,21.23
2024-04-23T01:22:53.578Z,21.23
2024-04-23T01:23:25.203Z,21.22
2024-04-23T01:23:56.736Z,21.23
2024-04-23T01:24:28.357Z,21.23
2024-04-23T01:24:59.943Z,21.23
2024-04-23T01:25:31.527Z,21.23
2024-04-23T01:26:03.165Z,21.22
2024-04-23T01:26:34.768Z,21.23
2024-04-23T01:27:06.318Z,21.24
2024-04-23T01:27:37.916Z,21.25
2024-04-23T01:28:09.529Z,21.24
2024-04-23T01:28:41.194Z,21.24
2024-04-23T01:29:12.819Z,21.24
2024-04-23T01:29:44.491Z,21.24
2024-04-23T01:30:16.099Z,21.24
2024-04-23T01:30:47.653Z,21.24
2024-04-23T01:31:19.223Z,21.23
2024-04-23T01:31:50.837Z,21.23
2024-04-23T01:32:22.541Z,21.24
2024-04-23T01:32:54.291Z,21.23
2024-04-23T01:33:25.973Z,21.24
2024-04-23T01:33:57.674Z,21.23
2024-04-23T01:34:29.269Z,21.24
2024-04-23T01:35:01.010Z,21.24
2024-04-23T01:35:32.664Z,21.23
2024-04-23T01:36:04.250Z,21.24
2024-04-23T01:36:36.000Z,21.24
2024-04-23T01:37:07.587Z,21.23
2024-04-23T01:37:39.173Z,21.22
2024-04-23T01:38:10.696Z,21.23
2024-04-23T01:38:42.315Z,21.23
2024-04-23T01:39:13.872Z,21.21
2024-04-23T01:39:45.435Z,21.19
2024-04-23T01:40:17.097Z,21.18
2024-04-23T01:40:48.719Z,21.19
2024-04-23T01:41:20.262Z,21.21
2024-04-23T01:41:51.798Z,21.18
2024-04-23T01:42:23.321Z,21.19
2024-04-23T01:42:54.907Z,21.20
2024-04-23T01:43:26.540Z,21.21
2024-04-23T01:43:58.153Z,21.21
2024-04-23T01:44:29.666Z,21.21
2024-04-23T01:45:01.254Z,21.21
2024-04-23T01:45:32.838Z,21.21
2024-04-23T01:46:04.395Z,21.21
2024-04-23T01:46:35.950Z,21.23
2024-04-23T01:47:07.717Z,21.23
2024-04-23T01:47:39.564Z,21.23
2024-04-23T01:48:11.351Z,21.23
2024-04-23T01:48:42.981Z,21.23
2024-04-23T01:49:14.532Z,21.23
2024-04-23T01:49:46.260Z,21.20
2024-04-23T01:50:17.894Z,21.21
2024-04-23T01:50:49.442Z,21.21
2024-04-23T01:51:21.013Z,21.23
2024-04-23T01:51:52.580Z,21.24
2024-04-23T01:52:24.231Z,21.24
2024-04-23T01:52:55.994Z,21.21
2024-04-23T01:53:27.572Z,21.21
2024-04-23T01:53:59.097Z,21.20
2024-04-23T01:54:30.681Z,21.22
2024-04-23T01:55:02.255Z,21.20
2024-04-23T01:55:33.827Z,21.20
2024-04-23T01:56:05.467Z,21.19
2024-04-23T01:56:37.094Z,21.19
2024-04-23T01:57:08.912Z,21.21
2024-04-23T01:57:40.622Z,21.20
2024-04-23T01:58:12.172Z,21.21
2024-04-23T01:58:43.784Z,21.21
2024-04-23T01:59:15.323Z,21.22
2024-04-23T01:59:46.880Z,21.22
2024-04-23T02:00:18.493Z,21.22
2024-04-23T02:00:50.093Z,21.21
2024-04-23T02:01:21.736Z,21.24
2024-04-23T02:01:53.357Z,21.23
2024-04-23T02:02:25.047Z,21.21
2024-04-23T02:02:56.654Z,21.23
2024-04-23T02:03:28.270Z,21.23
2024-04-23T02:03:59.872Z,21.23
2024-04-23T02:04:31.519Z,21.22
2024-04-23T02:05:03.264Z,21.21
2024-04-23T02:05:34.910Z,21.21
2024-04-23T02:06:06.507Z,21.21
2024-04-23T02:06:38.111Z,21.21
2024-04-23T02:07:09.712Z,21.20
2024-04-23T02:07:41.293Z,21.19
2024-04-23T02:08:12.834Z,21.21
2024-04-23T02:08:44.367Z,21.19
2024-04-23T02:09:15.919Z,21.19
2024-04-23T02:09:47.529Z,21.19
2024-04-23T02:10:19.071Z,21.19
2024-04-23T02:10:50.674Z,21.20
2024-04-23T02:11:22.383Z,21.20
2024-04-23T02:11:53.993Z,21.21
2024-04-23T02:12:25.582Z,21.20
2024-04-23T02:12:57.151Z,21.20
2024-04-23T02:13:28.797Z,21.20
2024-04-23T02:14:00.531Z,21.19
2024-04-23T02:14:32.171Z,21.19
2024-04-23T02:15:03.713Z,21.21
2024-04-23T02:15:35.378Z,21.19
2024-04-23T02:16:07.003Z,21.17
2024-04-23T02:16:38.574Z,21.15
2024-04-23T02:17:10.194Z,21.16
2024-04-23T02:17:41.940Z,21.16
2024-04-23T02:18:13.658Z,21.18
2024-04-23T02:18:45.278Z,21.18
2024-04-23T02:19:16.832Z,21.18
2024-04-23T02:19:48.484Z,21.19
2024-04-23T02:20:20.076Z,21.18
2024-04-23T02:20:51.711Z,21.18
2024-04-23T02:21:23.290Z,21.19
2024-04-23T02:21:54.934Z,21.20
2024-04-23T02:22:26.542Z,21.20
2024-04-23T02:22:58.183Z,21.20
2024-04-23T02:23:29.806Z,21.21
2024-04-23T02:24:01.344Z,21.21
2024-04-23T02:24:32.926Z,21.20
2024-04-23T02:25:04.467Z,21.19
2024-04-23T02:25:36.147Z,21.16
2024-04-23T02:26:07.868Z,21.14
2024-04-23T02:26:39.439Z,21.16
2024-04-23T02:27:11.004Z,21.14
2024-04-23T02:27:42.540Z,21.15
2024-04-23T02:28:14.115Z,21.15
2024-04-23T02:28:45.719Z,21.14
2024-04-23T02:29:17.259Z,21.15
2024-04-23T02:29:48.791Z,21.15
2024-04-23T02:30:20.374Z,21.15
2024-04-23T02:30:51.916Z,21.14
2024-04-23T02:31:23.450Z,21.12
2024-04-23T02:31:55.046Z,21.15
2024-04-23T02:32:26.724Z,21.13
2024-04-23T02:32:58.366Z,21.15
2024-04-23T02:33:30.087Z,21.14
2024-04-23T02:34:01.702Z,21.14
2024-04-23T02:34:33.321Z,21.13
2024-04-23T02:35:04.976Z,21.15
2024-04-23T02:35:36.643Z,21.14
2024-04-23T02:36:08.200Z,21.16
2024-04-23T02:36:39.769Z,21.15
2024-04-23T02:37:11.348Z,21.13
2024-04-23T02:37:42.924Z,21.14
2024-04-23T02:38:14.464Z,21.15
2024-04-23T02:38:46.044Z,21.16
2024-04-23T02:39:17.589Z,21.17
2024-04-23T02:39:49.424Z,21.16
2024-04-23T02:40:20.930Z,21.15
2024-04-23T02:40:52.509Z,21.17
2024-04-23T02:41:24.091Z,21.17
2024-04-23T02:41:55.640Z,21.18
2024-04-23T02:42:27.158Z,21.18
2024-04-23T02:42:58.722Z,21.17
2024-04-23T02:43:30.290Z,21.16
2024-04-23T02:44:01.892Z,21.13
2024-04-23T02:44:33.463Z,21.15
2024-04-23T02:45:05.119Z,21.14
2024-04-23T02:45:36.671Z,21.15
2024-04-23T02:46:08.242Z,21.15
2024-04-23T02:46:39.818Z,21.14
2024-04-23T02:47:11.493Z,21.14
2024-04-23T02:47:43.222Z,21.14
2024-04-23T02:48:14.930Z,21.14
2024-04-23T02:48:46.498Z,21.14
2024-04-23T02:49:18.071Z,21.15
2024-04-23T02:49:49.700Z,21.15
2024-04-23T02:50:21.371Z,21.15
2024-04-23T02:50:52.910Z,21.17
2024-04-23T02:51:24.513Z,21.17
2024-04-23T02:51:56.064Z,21.18
2024-04-23T02:52:27.625Z,21.20
2024-04-23T02:52:59.233Z,21.20
2024-04-23T02:53:30.815Z,21.20
2024-04-23T02:54:02.364Z,21.18
2024-04-23T02:54:33.924Z,21.18
2024-04-23T02:55:05.455Z,21.17
2024-04-23T02:55:37.209Z,21.18
2024-04-23T02:56:08.930Z,21.18
2024-04-23T02:56:40.587Z,21.18
2024-04-23T02:57:12.115Z,21.18
2024-04-23T02:57:43.667Z,21.19
2024-04-23T02:58:15.229Z,21.18
2024-04-23T02:58:46.853Z,21.17
2024-04-23T02:59:18.409Z,21.17
2024-04-23T02:59:49.971Z,21.17
2024-04-23T03:00:21.551Z,21.18
2024-04-23T03:00:53.118Z,21.16
2024-04-23T03:01:24.774Z,21.17
2024-04-23T03:01:56.441Z,21.18
2024-04-23T03:02:28.122Z,21.18
2024-04-23T03:02:59.867Z,21.17
2024-04-23T03:03:31.501Z,21.17
2024-04-23T03:04:03.136Z,21.14
2024-04-23T03:04:34.831Z,21.16
2024-04-23T03:05:06.474Z,21.17
2024-04-23T03:05:38.086Z,21.16
2024-04-23T03:06:09.626Z,21.16
2024-04-23T03:06:41.244Z,21.16
2024-04-23T03:07:12.805Z,21.17
2024-04-23T03:07:44.529Z,21.17
2024-04-23T03:08:16.149Z,21.17
2024-04-23T03:08:47.705Z,21.17
2024-04-23T03:09:19.265Z,21.18
2024-04-23T03:09:50.813Z,21.18
2024-04-23T03:10:22.374Z,21.20
2024-04-23T03:10:53.991Z,21.16
2024-04-23T03:11:25.634Z,21.17
2024-04-23T03:11:57.228Z,21.19
2024-04-23T03:12:28.834Z,21.18
2024-04-23T03:13:00.421Z,21.18
2024-04-23T03:13:32.011Z,21.17
2024-04-23T03:14:03.963Z,21.19
2024-04-23T03:14:35.676Z,21.20
2024-04-23T03:15:07.240Z,21.20
2024-04-23T03:15:38.804Z,21.21
2024-04-23T03:16:10.550Z,21.20
2024-04-23T03:16:42.190Z,21.19
2024-04-23T03:17:13.738Z,21.16
2024-04-23T03:17:45.497Z,21.19
2024-04-23T03:18:17.132Z,21.19
2024-04-23T03:18:48.808Z,21.20
2024-04-23T03:19:20.359Z,21.18
2024-04-23T03:19:51.912Z,21.18
2024-04-23T03:20:23.453Z,21.18
2024-04-23T03:20:55.192Z,21.17
2024-04-23T03:21:26.733Z,21.16
2024-04-23T03:21:58.325Z,21.17
2024-04-23T03:22:29.965Z,21.16
2024-04-23T03:23:01.678Z,21.18
2024-04-23T03:23:33.280Z,21.16
2024-04-23T03:24:04.775Z,21.17
2024-04-23T03:24:36.390Z,21.18
2024-04-23T03:25:07.958Z,21.18
2024-04-23T03:25:40.862Z,21.16
2024-04-23T03:26:12.785Z,21.18
2024-04-23T03:26:44.395Z,21.15
2024-04-23T03:27:15.945Z,21.16
2024-04-23T03:27:47.494Z,21.16
2024-04-23T03:28:19.015Z,21.18
2024-04-23T03:28:50.640Z,21.16
2024-04-23T03:29:22.252Z,21.17
2024-04-23T03:29:53.800Z,21.17
2024-04-23T03:30:25.362Z,21.17
2024-04-23T03:30:56.907Z,21.18
2024-04-23T03:31:28.608Z,21.16
2024-04-23T03:32:00.407Z,21.17
2024-04-23T03:32:32.171Z,21.17
2024-04-23T03:33:03.848Z,21.17
2024-04-23T03:33:35.514Z,21.17
2024-04-23T03:34:07.092Z,21.18
2024-04-23T03:34:38.677Z,21.19
2024-04-23T03:35:10.395Z,21.18
2024-04-23T03:35:42.124Z,21.18
2024-04-23T03:36:15.796Z,21.18
2024-04-23T03:36:48.835Z,21.16
2024-04-23T03:37:20.379Z,21.17
2024-04-23T03:37:52.081Z,21.18
2024-04-23T03:38:23.715Z,21.17
2024-04-23T03:38:55.241Z,21.19
2024-04-23T03:39:26.803Z,21.18
2024-04-23T03:39:58.331Z,21.17
2024-04-23T03:40:29.937Z,21.18
2024-04-23T03:41:01.654Z,21.18
2024-04-23T03:41:33.286Z,21.18
2024-04-23T03:42:04.852Z,21.19
2024-04-23T03:42:36.404Z,21.18
2024-04-23T03:43:07.949Z,21.20
2024-04-23T03:43:39.524Z,21.17
2024-04-23T03:44:11.074Z,21.17
2024-04-23T03:44:45.653Z,21.13
2024-04-23T03:45:19.200Z,21.12
2024-04-23T03:45:50.744Z,21.14
2024-04-23T03:46:22.347Z,21.15
2024-04-23T03:46:53.989Z,21.15
2024-04-23T03:47:25.592Z,21.14
2024-04-23T03:47:57.248Z,21.13
2024-04-23T03:48:28.877Z,21.14
2024-04-23T03:49:00.427Z,21.12
2024-04-23T03:49:32.041Z,21.13
2024-04-23T03:50:03.745Z,21.14
2024-04-23T03:50:35.430Z,21.14
2024-04-23T03:51:06.958Z,21.13
2024-04-23T03:51:38.525Z,21.15
2024-04-23T03:52:10.150Z,21.14
2024-04-23T03:52:41.748Z,21.14
2024-04-23T03:53:13.312Z,21.14
2024-04-23T03:53:44.895Z,21.15
2024-04-23T03:54:16.552Z,21.15
2024-04-23T03:54:48.199Z,21.16
2024-04-23T03:55:19.832Z,21.16
2024-04-23T03:55:51.411Z,21.16
2024-04-23T03:56:22.977Z,21.15
2024-04-23T03:56:57.229Z,21.16
2024-04-23T03:57:28.803Z,21.15
2024-04-23T03:58:00.398Z,21.18
2024-04-23T03:58:32.033Z,21.19
2024-04-23T03:59:03.650Z,21.17
2024-04-23T03:59:35.286Z,21.18
2024-04-23T04:00:06.906Z,21.18
2024-04-23T04:00:38.473Z,21.19
2024-04-23T04:01:10.070Z,21.18
2024-04-23T04:01:41.722Z,21.18
2024-04-23T04:02:13.358Z,21.18
2024-04-23T04:02:45.028Z,21.16
2024-04-23T04:03:16.659Z,21.15
2024-04-23T04:03:48.210Z,21.15
2024-04-23T04:04:19.822Z,21.16
2024-04-23T04:04:51.446Z,21.16
2024-04-23T04:05:23.015Z,21.14
2024-04-23T04:05:54.616Z,21.12
2024-04-23T04:06:26.166Z,21.12
2024-04-23T04:06:57.755Z,21.13
2024-04-23T04:07:29.361Z,21.13
2024-04-23T04:08:01.010Z,21.11
2024-04-23T04:08:32.637Z,21.13
2024-04-23T04:09:04.259Z,21.14
2024-04-23T04:09:35.846Z,21.13
2024-04-23T04:10:07.415Z,21.12
2024-04-23T04:10:38.978Z,21.14
2024-04-23T04:11:10.683Z,21.14
2024-04-23T04:11:42.430Z,21.14
2024-04-23T04:12:14.009Z,21.15
2024-04-23T04:12:45.586Z,21.12
2024-04-23T04:13:23.410Z,21.12
2024-04-23T04:13:55.965Z,21.12
2024-04-23T04:14:27.623Z,21.11
2024-04-23T04:14:59.149Z,21.11
2024-04-23T04:15:30.776Z,21.11
2024-04-23T04:16:02.286Z,21.12
2024-04-23T04:16:35.789Z,21.12
2024-04-23T04:17:07.879Z,21.13
2024-04-23T04:17:39.688Z,21.14
2024-04-23T04:18:11.549Z,21.14
2024-04-23T04:18:43.241Z,21.13
2024-04-23T04:19:14.854Z,21.12
2024-04-23T04:19:46.519Z,21.12
2024-04-23T04:20:18.084Z,21.12
2024-04-23T04:20:49.609Z,21.13
2024-04-23T04:21:21.136Z,21.13
2024-04-23T04:21:52.696Z,21.13
2024-04-23T04:22:24.285Z,21.12
2024-04-23T04:22:55.929Z,21.11
2024-04-23T04:23:27.660Z,21.10
2024-04-23T04:23:59.300Z,21.10
2024-04-23T04:24:30.906Z,21.10
2024-04-23T04:25:02.422Z,21.10
2024-04-23T04:25:33.944Z,21.11
2024-04-23T04:26:05.645Z,21.12
2024-04-23T04:26:37.331Z,21.12
2024-04-23T04:27:08.866Z,21.12
2024-04-23T04:27:40.525Z,21.13
2024-04-23T04:28:12.119Z,21.13
2024-04-23T04:28:43.735Z,21.13
2024-04-23T04:29:15.320Z,21.14
2024-04-23T04:29:46.909Z,21.15
2024-04-23T04:30:18.501Z,21.15
2024-04-23T04:30:50.133Z,21.13
2024-04-23T04:31:21.703Z,21.12
2024-04-23T04:31:53.307Z,21.13
2024-04-23T04:32:25.047Z,21.13
2024-04-23T04:32:56.684Z,21.12
2024-04-23T04:33:28.305Z,21.13
2024-04-23T04:33:59.869Z,21.13
2024-04-23T04:34:31.472Z,21.14
2024-04-23T04:35:03.196Z,21.15
2024-04-23T04:35:34.834Z,21.14
2024-04-23T04:36:06.374Z,21.14
2024-04-23T04:36:37.943Z,21.12
2024-04-23T04:37:09.648Z,21.13
2024-04-23T04:37:41.229Z,21.13
2024-04-23T04:38:12.822Z,21.13
2024-04-23T04:38:44.421Z,21.14
2024-04-23T04:39:16.001Z,21.13
2024-04-23T04:39:47.601Z,21.12
2024-04-23T04:40:19.141Z,21.12
2024-04-23T04:40:50.669Z,21.13
2024-04-23T04:41:22.237Z,21.12
2024-04-23T04:41:53.853Z,21.14
2024-04-23T04:42:25.436Z,21.13
2024-04-23T04:42:56.978Z,21.14
2024-04-23T04:43:28.588Z,21.13
2024-04-23T04:44:00.276Z,21.13
2024-04-23T04:44:31.936Z,21.14
2024-04-23T04:45:03.496Z,21.14
2024-04-23T04:45:35.000Z,21.14
2024-04-23T04:46:06.567Z,21.14
2024-04-23T04:46:38.177Z,21.14
2024-04-23T04:47:11.829Z,21.13
2024-04-23T04:47:43.864Z,21.14
2024-04-23T04:48:15.618Z,21.13
2024-04-23T04:48:47.311Z,21.14
2024-04-23T04:49:18.910Z,21.14
2024-04-23T04:49:50.531Z,21.13
2024-04-23T04:50:22.094Z,21.14
2024-04-23T04:50:53.647Z,21.14
2024-04-23T04:51:25.199Z,21.14
2024-04-23T04:51:56.794Z,21.14
2024-04-23T04:52:28.413Z,21.14
2024-04-23T04:53:00.051Z,21.14
2024-04-23T04:53:31.685Z,21.14
2024-04-23T04:54:03.240Z,21.15
2024-04-23T04:54:34.771Z,21.14
2024-04-23T04:55:06.391Z,21.13
2024-04-23T04:55:37.967Z,21.14
2024-04-23T04:56:09.682Z,21.14
2024-04-23T04:56:41.274Z,21.13
2024-04-23T04:57:12.828Z,21.14
2024-04-23T04:57:44.422Z,21.13
2024-04-23T04:58:15.981Z,21.14
2024-04-23T04:58:47.623Z,21.14
2024-04-23T04:59:19.220Z,21.11
2024-04-23T04:59:50.775Z,21.13
2024-04-23T05:00:22.333Z,21.15
2024-04-23T05:00:53.913Z,21.15
2024-04-23T05:01:25.577Z,21.13
2024-04-23T05:01:57.185Z,21.13
2024-04-23T05:02:28.774Z,21.14
2024-04-23T05:03:00.300Z,21.14
2024-04-23T05:03:31.810Z,21.14
2024-04-23T05:04:03.374Z,21.13
2024-04-23T05:04:34.935Z,21.13
2024-04-23T05:05:06.571Z,21.15
2024-04-23T05:05:38.197Z,21.13
2024-04-23T05:06:09.718Z,21.15
2024-04-23T05:06:41.329Z,21.14
2024-04-23T05:07:12.941Z,21.15
2024-04-23T05:07:44.590Z,21.14
2024-04-23T05:08:16.185Z,21.15
2024-04-23T05:08:47.762Z,21.15
2024-04-23T05:09:19.291Z,21.15
2024-04-23T05:09:50.940Z,21.14
2024-04-23T05:10:22.528Z,21.14
2024-04-23T05:10:54.106Z,21.15
2024-04-23T05:11:25.684Z,21.16
2024-04-23T05:11:57.336Z,21.15
2024-04-23T05:12:28.915Z,21.13
2024-04-23T05:13:00.493Z,21.14
2024-04-23T05:13:32.123Z,21.16
2024-04-23T05:14:03.778Z,21.15
2024-04-23T05:14:35.440Z,21.16
2024-04-23T05:15:07.036Z,21.15
2024-04-23T05:15:38.573Z,21.15
2024-04-23T05:16:10.156Z,21.15
2024-04-23T05:16:41.716Z,21.16
2024-04-23T05:17:13.289Z,21.14
2024-04-23T05:17:44.996Z,21.14
2024-04-23T05:18:16.662Z,21.14
2024-04-23T05:18:48.317Z,21.16
2024-04-23T05:19:19.916Z,21.14
2024-04-23T05:19:51.531Z,21.14
2024-04-23T05:20:23.156Z,21.14
2024-04-23T05:20:54.707Z,21.14
2024-04-23T05:21:26.335Z,21.14
2024-04-23T05:21:57.876Z,21.15
2024-04-23T05:22:29.443Z,21.15
2024-04-23T05:23:01.146Z,21.15
2024-04-23T05:23:32.790Z,21.14
2024-04-23T05:24:04.444Z,21.16
2024-04-23T05:24:36.238Z,21.16
2024-04-23T05:25:07.813Z,21.15
2024-04-23T05:25:39.404Z,21.16
2024-04-23T05:26:11.018Z,21.16
2024-04-23T05:26:42.551Z,21.15
2024-04-23T05:27:14.073Z,21.15
2024-04-23T05:27:45.677Z,21.15
2024-04-23T05:28:17.200Z,21.15
2024-04-23T05:28:48.909Z,21.14
2024-04-23T05:29:20.561Z,21.16
2024-04-23T05:29:52.074Z,21.14
2024-04-23T05:30:23.626Z,21.14
2024-04-23T05:30:55.194Z,21.16
2024-04-23T05:31:26.763Z,21.16
2024-04-23T05:31:58.427Z,21.18
2024-04-23T05:32:30.075Z,21.19
2024-04-23T05:33:01.685Z,21.18
2024-04-23T05:33:33.496Z,21.18
2024-04-23T05:34:05.069Z,21.16
2024-04-23T05:34:36.653Z,21.16
2024-04-23T05:35:08.346Z,21.16
2024-04-23T05:35:40.004Z,21.16
2024-04-23T05:36:11.553Z,21.17
2024-04-23T05:36:43.146Z,21.16
2024-04-23T05:37:14.710Z,21.18
2024-04-23T05:37:46.305Z,21.17
2024-04-23T05:38:17.978Z,21.17
2024-04-23T05:38:49.635Z,21.15
2024-04-23T05:39:21.150Z,21.16
2024-04-23T05:39:52.680Z,21.14
2024-04-23T05:40:24.198Z,21.12
2024-04-23T05:40:55.811Z,21.14
2024-04-23T05:41:27.459Z,21.15
2024-04-23T05:41:59.050Z,21.15
2024-04-23T05:42:30.584Z,21.18
2024-04-23T05:43:02.199Z,21.16
2024-04-23T05:43:33.773Z,21.16
2024-04-23T05:44:05.380Z,21.18
2024-04-23T05:44:36.974Z,21.16
2024-04-23T05:45:08.629Z,21.18
2024-04-23T05:45:40.167Z,21.18
2024-04-23T05:46:11.731Z,21.18
2024-04-23T05:46:43.265Z,21.18
2024-04-23T05:47:14.956Z,21.19
2024-04-23T05:47:46.605Z,21.19
2024-04-23T05:48:18.227Z,21.19
2024-04-23T05:48:49.866Z,21.19
2024-04-23T05:49:21.420Z,21.17
2024-04-23T05:49:52.984Z,21.17
2024-04-23T05:50:28.355Z,21.18
2024-04-23T05:51:00.689Z,21.17
2024-04-23T05:51:32.220Z,21.17
2024-04-23T05:52:12.203Z,21.17
2024-04-23T05:52:50.880Z,21.19
2024-04-23T05:53:22.467Z,21.17
2024-04-23T05:53:54.043Z,21.19
2024-04-23T05:54:25.629Z,21.19
2024-04-23T05:54:57.275Z,21.19
2024-04-23T05:55:28.871Z,21.19
2024-04-23T05:56:00.551Z,21.20
2024-04-23T05:56:32.190Z,21.19
2024-04-23T05:57:03.822Z,21.17
2024-04-23T05:57:35.426Z,21.15
2024-04-23T05:58:06.983Z,21.15
2024-04-23T05:58:38.573Z,21.15
2024-04-23T05:59:10.170Z,21.17
2024-04-23T05:59:41.801Z,21.19
2024-04-23T06:00:13.371Z,21.18
2024-04-23T06:00:44.998Z,21.19
2024-04-23T06:01:19.724Z,21.19
2024-04-23T06:01:51.878Z,21.20
2024-04-23T06:02:23.604Z,21.19
2024-04-23T06:02:55.182Z,21.19
2024-04-23T06:03:26.783Z,21.19
2024-04-23T06:03:58.348Z,21.19
2024-04-23T06:04:30.037Z,21.18
2024-04-23T06:05:01.786Z,21.19
2024-04-23T06:05:33.540Z,21.19
2024-04-23T06:06:05.128Z,21.19
2024-04-23T06:06:36.714Z,21.19
2024-04-23T06:07:08.316Z,21.20
2024-04-23T06:07:42.015Z,21.20
2024-04-23T06:08:14.287Z,21.20
2024-04-23T06:08:46.030Z,21.19
2024-04-23T06:09:17.612Z,21.16
2024-04-23T06:09:49.192Z,21.19
2024-04-23T06:10:20.817Z,21.21
2024-04-23T06:10:52.426Z,21.20
2024-04-23T06:11:24.236Z,21.20
2024-04-23T06:11:56.027Z,21.22
2024-04-23T06:12:27.602Z,21.24
2024-04-23T06:12:59.201Z,21.25
2024-04-23T06:13:30.787Z,21.24
2024-04-23T06:14:02.397Z,21.25
2024-04-23T06:14:33.976Z,21.27
2024-04-23T06:15:05.632Z,21.25
2024-04-23T06:15:37.212Z,21.25
2024-04-23T06:16:08.800Z,21.25
2024-04-23T06:16:40.544Z,21.24
2024-04-23T06:17:12.113Z,21.23
2024-04-23T06:17:47.925Z,21.24
2024-04-23T06:18:20.261Z,21.25
2024-04-23T06:18:51.976Z,21.23
2024-04-23T06:19:23.583Z,21.23
2024-04-23T06:19:55.134Z,21.23
2024-04-23T06:20:26.672Z,21.23
2024-04-23T06:20:58.317Z,21.24
2024-04-23T06:21:29.881Z,21.25
2024-04-23T06:22:01.408Z,21.25
2024-04-23T06:22:33.104Z,21.25
2024-04-23T06:23:04.878Z,21.26
2024-04-23T06:23:36.480Z,21.26
2024-04-23T06:24:08.045Z,21.26
2024-04-23T06:24:39.663Z,21.25
2024-04-23T06:25:11.261Z,21.26
2024-04-23T06:25:42.922Z,21.25
2024-04-23T06:26:14.527Z,21.23
2024-04-23T06:26:46.089Z,21.24
2024-04-23T06:27:17.646Z,21.25
2024-04-23T06:27:49.282Z,21.26
2024-04-23T06:28:20.862Z,21.26
2024-04-23T06:28:52.501Z,21.27
2024-04-23T06:29:24.089Z,21.27
2024-04-23T06:29:55.669Z,21.28
2024-04-23T06:30:27.277Z,21.27
2024-04-23T06:30:58.883Z,21.27
2024-04-23T06:31:32.465Z,21.27
2024-04-23T06:32:04.592Z,21.26
2024-04-23T06:32:36.455Z,21.27
2024-04-23T06:33:08.354Z,21.27
2024-04-23T06:33:40.130Z,21.30
2024-04-23T06:34:11.717Z,21.31
2024-04-23T06:34:43.596Z,21.31
2024-04-23T06:35:15.507Z,21.30
2024-04-23T06:35:47.225Z,21.30
2024-04-23T06:36:18.767Z,21.30
2024-04-23T06:36:50.321Z,21.31
2024-04-23T06:37:22.986Z,21.30
2024-04-23T06:37:55.599Z,21.30
2024-04-23T06:38:27.185Z,21.31
2024-04-23T06:38:58.750Z,21.31
2024-04-23T06:39:30.375Z,21.32
2024-04-23T06:40:01.988Z,21.34
2024-04-23T06:40:33.559Z,21.34
2024-04-23T06:41:05.155Z,21.32
2024-04-23T06:41:36.725Z,21.31
2024-04-23T06:42:08.273Z,21.31
2024-04-23T06:42:39.925Z,21.30
2024-04-23T06:43:14.189Z,21.29
2024-04-23T06:43:46.750Z,21.29
2024-04-23T06:44:18.351Z,21.28
2024-04-23T06:44:49.932Z,21.29
2024-04-23T06:45:21.483Z,21.29
2024-04-23T06:45:53.043Z,21.30
2024-04-23T06:46:24.601Z,21.32
2024-04-23T06:46:56.276Z,21.32
2024-04-23T06:47:27.868Z,21.31
2024-04-23T06:47:59.588Z,21.32